Flight Track Log - Related Links

Times and Time Zones

All times are in EDT time to prevent confusion due to time zone crossing. See the EJA729 flight status page for this flight to view local times or setup timezone preferences in your user account.


Time Position Orientation Groundspeed Altitude Reporting Facility
EDT Latitude Longitude Course Direction KTS MPH feet Rate Location/Type
Sun 09:52:54 AM 17.9167 -63.1500 270° West 220 253 8,700  Level San Juan Center
Sun 09:53:54 AM 17.9167 -63.2333 270° West 310 357 11,900 1,650 Climbing San Juan Center
Sun 09:54:54 AM 17.9667 -63.3333 298° West 380 437 12,000 347 Climbing San Juan Center
Sun 09:55:55 AM 18.0167 -63.4333 298° West 370 426 12,600 942 Climbing San Juan Center
Sun 09:56:55 AM 18.0500 -63.5167 293° West 360 414 13,900 1,200 Climbing San Juan Center
Sun 09:57:55 AM 18.1000 -63.6167 298° West 360 414 15,000 1,388 Climbing San Juan Center
Sun 09:58:56 AM 18.1333 -63.7333 287° West 410 472 16,700 2,033 Climbing San Juan Center
Sun 09:59:56 AM 18.1333 -63.8500 270° West 420 483 19,100 2,450 Climbing San Juan Center
Sun 10:00:56 AM 18.1500 -63.9833 278° West 430 495 21,600 2,380 Climbing San Juan Center
Sun 10:01:57 AM 18.1667 -64.1000 279° West 440 506 23,900 2,331 Climbing San Juan Center
Sun 10:02:57 AM 18.1667 -64.2333 270° West 440 506 26,300 2,450 Climbing San Juan Center
Sun 10:03:57 AM 18.1833 -64.3667 278° West 440 506 28,800 1,835 Climbing San Juan Center
Sun 10:04:58 AM 18.2000 -64.5000 278° West 450 518 30,000 595 Climbing San Juan Center
Sun 10:05:58 AM 18.2167 -64.6333 278° West 460 529 30,000  Level San Juan Center
Sun 10:06:58 AM 18.2167 -64.7667 270° West 460 529 30,000  Level San Juan Center
Sun 10:07:58 AM 18.2333 -64.9000 278° West 460 529 30,000  Level San Juan Center
Sun 10:08:58 AM 18.2333 -65.0333 270° West 470 541 30,000  Level San Juan Center
Sun 10:09:59 AM 18.2500 -65.1833 277° West 470 541 30,000  Level San Juan Center
Sun 10:10:59 AM 18.2667 -65.3000 279° West 470 541 30,000  Level San Juan Center
Sun 10:11:59 AM 18.2833 -65.4500 277° West 460 529 30,000  Level San Juan Center
Sun 10:13:00 AM 18.3000 -65.5833 278° West 470 541 30,000  Level San Juan Center
Sun 10:14:00 AM 18.3000 -65.7333 270° West 480 552 30,000  Level San Juan Center
Sun 10:15:00 AM 18.3167 -65.8667 278° West 460 529 30,000  Level San Juan Center
Sun 10:16:00 AM 18.3167 -66.0000 270° West 470 541 30,000  Level San Juan Center
Sun 10:17:01 AM 18.3333 -66.1333 278° West 470 541 30,000  Level San Juan Center
Sun 10:18:01 AM 18.3500 -66.2667 278° West 450 518 30,000  Level San Juan Center
Sun 10:19:01 AM 18.3667 -66.4000 278° West 450 518 30,000  Level San Juan Center
Sun 10:20:02 AM 18.3667 -66.5333 270° West 460 529 30,000  Level San Juan Center
Sun 10:21:02 AM 18.3833 -66.6667 278° West 450 518 30,000 -150 Level San Juan Center
Sun 10:22:02 AM 18.3833 -66.8000 270° West 450 518 29,700 -1,388 Descending San Juan Center
Sun 10:23:03 AM 18.4000 -66.9333 278° West 470 541 27,200 -2,529 Descending San Juan Center
Sun 10:24:03 AM 18.4167 -67.0833 277° West 490 564 24,600 -2,550 Descending San Juan Center
Sun 10:25:03 AM 18.4167 -67.2167 270° West 480 552 22,100 -2,380 Descending San Juan Center
Sun 10:26:04 AM 18.4333 -67.3500 278° West 460 529 19,800 -2,331 Descending San Juan Center
Sun 10:27:04 AM 18.4333 -67.4833 270° West 450 518 17,400 -2,200 Descending San Juan Center
Sun 10:28:04 AM 18.4500 -67.5833 280° West 370 426 15,400 -1,884 Descending San Juan Center
Sun 10:29:05 AM 18.4500 -67.6833 270° West 340 391 13,600 -1,884 Descending San Juan Center
Sun 10:30:05 AM 18.4667 -67.8000 279° West 360 414 11,600 -1,700 Descending San Juan Center
Sun 10:31:05 AM 18.4667 -67.8833 270° West 320 368 10,200 -1,438 Descending San Juan Center
Sun 10:32:06 AM 18.4833 -67.9667 282° West 320 368 8,700 -1,475 Descending San Juan Center
Sun 10:34:00 AM 18.5323 -68.1770 281° West  Level FlightAware Approximate

Login

Don't have an account? Register now (free) for customized features, flight alerts, and more!